Time;durP1;ratioP1;P1;durP2;ratioP2;P2;SDS_P1;SDS_P2;PMS_P1;PMS_P2;Temp;Humidity;BMP_temperature;BMP_pressure;BME280_temperature;BME280_humidity;BME280_pressure;Samples;Min_cycle;Max_cycle;Signal;HPM_P1;HPM_P2
2022/07/20 00:00:23;;;;;;;2.65;1.42;;;26.10;44.50;24.90;101021.00;;;;5026079;28;20038;-68
2022/07/20 00:03:11;;;;;;;1.38;1.10;;;26.10;43.80;24.90;101023.00;;;;5011416;28;20042;-68
2022/07/20 00:05:57;;;;;;;1.65;1.23;;;26.10;43.80;24.90;101027.00;;;;5011178;28;20419;-68
2022/07/20 00:11:48;;;;;;;2.15;1.50;;;26.10;43.90;24.90;101032.00;;;;5020268;28;20471;-68
2022/07/20 00:14:34;;;;;;;2.35;1.25;;;26.10;43.80;24.90;101029.00;;;;5023249;28;20041;-68
2022/07/20 00:17:20;;;;;;;1.45;1.27;;;26.10;43.90;24.90;101022.00;;;;5026702;28;20049;-68
2022/07/20 00:20:06;;;;;;;2.30;1.45;;;26.10;43.90;24.90;101030.00;;;;5027153;28;20084;-67
2022/07/20 00:22:53;;;;;;;3.17;1.30;;;26.10;43.90;24.90;101025.00;;;;5021024;28;20576;-68
2022/07/20 00:25:39;;;;;;;1.77;1.58;;;26.00;43.80;24.90;101025.00;;;;5024756;28;20386;-68
2022/07/20 00:28:25;;;;;;;1.65;1.23;;;26.10;43.90;24.90;101029.00;;;;5024569;28;20033;-68
2022/07/20 00:31:11;;;;;;;2.35;1.60;;;26.00;43.80;24.90;101024.00;;;;5026554;28;20041;-68
2022/07/20 00:33:57;;;;;;;2.28;1.63;;;26.10;43.90;24.90;101024.00;;;;5024716;28;20052;-68
2022/07/20 00:36:43;;;;;;;1.10;1.00;;;26.10;43.90;24.90;101022.00;;;;5020330;28;20041;-68
2022/07/20 00:39:29;;;;;;;2.20;1.50;;;26.10;43.90;24.90;101027.00;;;;5023655;28;20045;-68
2022/07/20 00:42:15;;;;;;;2.20;1.33;;;26.10;43.90;24.90;101019.00;;;;5022313;28;20034;-68
2022/07/20 00:45:03;;;;;;;1.85;1.45;;;26.10;43.90;24.90;101023.00;;;;5022892;28;20443;-67
2022/07/20 00:47:51;;;;;;;1.52;1.40;;;26.10;43.90;24.90;101021.00;;;;5025787;28;20092;-68
2022/07/20 00:50:37;;;;;;;1.60;1.23;;;26.10;43.90;24.90;101018.00;;;;5049784;28;20175;-68
2022/07/20 00:53:23;;;;;;;1.75;1.45;;;26.10;43.90;24.90;101014.00;;;;5041889;28;20124;-68
2022/07/20 00:56:09;;;;;;;1.95;1.55;;;26.10;43.90;24.90;101013.00;;;;5023648;28;20407;-68
2022/07/20 00:58:56;;;;;;;2.15;1.27;;;26.10;43.90;24.90;101020.00;;;;5022983;28;20037;-68
2022/07/20 01:01:42;;;;;;;2.28;1.50;;;26.10;44.00;24.90;101009.00;;;;5022593;28;20399;-68
2022/07/20 01:04:28;;;;;;;2.65;1.20;;;26.10;43.90;24.90;101009.00;;;;5022860;28;20497;-67
2022/07/20 01:07:14;;;;;;;1.55;1.38;;;26.20;44.00;24.90;101008.00;;;;5022942;28;20046;-68
2022/07/20 01:10:00;;;;;;;3.50;1.52;;;26.10;43.90;24.90;101016.00;;;;5022660;28;20129;-68
2022/07/20 01:12:48;;;;;;;1.58;1.30;;;26.10;44.00;24.90;101007.00;;;;5047611;28;20095;-68
2022/07/20 01:15:34;;;;;;;2.60;1.45;;;26.10;43.90;24.90;101005.00;;;;5018102;28;20041;-68
2022/07/20 01:18:20;;;;;;;1.88;1.08;;;26.10;44.00;24.90;101009.00;;;;5025765;28;20047;-68
2022/07/20 01:21:07;;;;;;;3.08;1.40;;;26.10;44.00;24.90;101001.00;;;;5021003;28;20038;-68
2022/07/20 01:23:53;;;;;;;1.70;1.35;;;26.10;44.00;24.90;100999.00;;;;5021152;28;20117;-68
2022/07/20 01:26:40;;;;;;;1.95;1.45;;;26.10;43.90;24.90;100997.00;;;;5020764;28;20052;-68
2022/07/20 01:29:26;;;;;;;1.73;1.40;;;26.00;43.90;24.90;101000.00;;;;5024572;28;20049;-68
2022/07/20 01:32:12;;;;;;;1.60;1.50;;;26.10;44.00;24.90;100996.00;;;;5021204;28;20045;-68
2022/07/20 01:34:58;;;;;;;2.15;1.30;;;26.10;44.00;24.90;100994.00;;;;5023523;28;20509;-68
2022/07/20 01:37:44;;;;;;;1.80;1.35;;;26.10;44.00;24.90;100991.00;;;;5020210;28;20049;-67
2022/07/20 01:40:30;;;;;;;1.73;1.40;;;26.10;44.00;24.90;100986.00;;;;5020286;28;20655;-68
2022/07/20 01:43:17;;;;;;;2.45;1.55;;;26.10;44.00;24.90;100989.00;;;;5023912;28;20035;-68
2022/07/20 01:46:03;;;;;;;4.75;1.80;;;26.10;44.00;24.90;100982.00;;;;5024383;28;20357;-68
2022/07/20 01:48:49;;;;;;;1.38;1.25;;;26.10;44.00;24.90;100984.00;;;;5021290;28;20044;-68
2022/07/20 01:51:35;;;;;;;1.40;1.30;;;26.00;43.90;24.90;100980.00;;;;5017007;28;20502;-68
2022/07/20 01:54:21;;;;;;;2.30;1.30;;;26.10;44.00;24.90;100979.00;;;;5019648;28;20045;-68
2022/07/20 01:57:07;;;;;;;1.40;1.20;;;26.00;43.90;24.90;100979.00;;;;5017000;28;20053;-68
2022/07/20 01:59:53;;;;;;;1.48;1.20;;;26.10;44.00;24.90;100985.00;;;;5020991;28;20049;-68
2022/07/20 02:02:40;;;;;;;1.27;1.08;;;26.10;44.00;24.90;100985.00;;;;5025433;28;20036;-68
2022/07/20 02:05:26;;;;;;;;;;;26.10;44.00;24.80;100982.00;;;;5028255;28;20372;-68
2022/07/20 02:08:12;;;;;;;2.80;1.65;;;26.10;44.00;24.80;100979.00;;;;5022088;28;20378;-68
2022/07/20 02:10:58;;;;;;;1.52;1.20;;;26.10;43.90;24.80;100981.00;;;;5023884;28;20098;-68
2022/07/20 02:13:44;;;;;;;1.83;1.60;;;26.10;43.90;24.90;100977.00;;;;5029688;28;20368;-68
2022/07/20 02:16:30;;;;;;;3.50;1.58;;;26.10;44.00;24.90;100977.00;;;;5011791;28;20083;-67
2022/07/20 02:19:16;;;;;;;2.65;1.40;;;26.10;44.00;24.90;100991.00;;;;5029636;28;20040;-68
2022/07/20 02:22:03;;;;;;;2.28;1.30;;;26.10;44.00;24.90;100996.00;;;;5025392;28;20091;-67
2022/07/20 02:24:49;;;;;;;1.50;1.40;;;26.00;44.00;24.90;100992.00;;;;5028697;28;20037;-68
2022/07/20 02:27:35;;;;;;;2.90;1.35;;;26.00;44.00;24.90;100996.00;;;;5023840;28;20045;-68
2022/07/20 02:30:21;;;;;;;1.40;1.30;;;26.10;44.10;24.90;100993.00;;;;5025062;28;20056;-68
2022/07/20 02:33:07;;;;;;;1.40;1.27;;;26.00;44.00;24.90;100996.00;;;;5031231;28;20262;-68
2022/07/20 02:35:53;;;;;;;1.90;1.30;;;26.10;44.10;24.90;100990.00;;;;5026203;28;20115;-68
2022/07/20 02:38:39;;;;;;;1.90;1.52;;;26.10;44.10;24.90;100990.00;;;;5026857;28;20388;-68
2022/07/20 02:41:25;;;;;;;2.30;1.42;;;26.10;44.10;24.90;100988.00;;;;5022905;28;20037;-68
2022/07/20 02:44:11;;;;;;;2.53;1.65;;;26.00;44.00;24.90;100992.00;;;;5023043;28;20048;-68
2022/07/20 02:46:57;;;;;;;1.83;1.33;;;26.10;44.10;24.90;100982.00;;;;5030578;28;20148;-68
2022/07/20 02:49:43;;;;;;;1.65;1.50;;;26.00;44.00;24.90;100984.00;;;;5029086;28;20033;-68
2022/07/20 02:52:29;;;;;;;2.60;1.38;;;26.10;44.10;24.90;100986.00;;;;5019516;28;20045;-68
2022/07/20 02:55:15;;;;;;;1.45;1.35;;;26.10;44.10;24.90;100985.00;;;;5027501;28;20130;-68
2022/07/20 02:58:01;;;;;;;4.30;1.30;;;26.10;44.10;24.90;100986.00;;;;5025055;28;20058;-68
2022/07/20 03:00:47;;;;;;;1.42;1.30;;;26.10;44.10;24.90;100997.00;;;;5018089;28;20041;-68
2022/07/20 03:03:33;;;;;;;2.03;1.38;;;26.10;44.10;24.90;100993.00;;;;5021934;28;20041;-68
2022/07/20 03:06:20;;;;;;;1.90;1.38;;;26.00;44.00;24.90;100984.00;;;;5027200;28;20049;-68
2022/07/20 03:09:06;;;;;;;1.45;1.25;;;26.10;44.10;24.90;100996.00;;;;5027411;28;20049;-68
2022/07/20 03:11:52;;;;;;;6.88;1.70;;;26.10;44.10;24.90;100995.00;;;;5020524;28;20197;-68
2022/07/20 03:14:39;;;;;;;3.00;2.35;;;26.10;44.10;24.90;100991.00;;;;5024755;28;20222;-68
2022/07/20 03:17:25;;;;;;;1.60;1.27;;;26.10;44.10;24.90;100989.00;;;;5023744;28;20044;-68
2022/07/20 03:20:12;;;;;;;3.92;2.15;;;26.10;44.10;24.90;100999.00;;;;5026040;28;20402;-68
2022/07/20 03:22:58;;;;;;;1.92;1.73;;;26.10;44.10;24.90;100993.00;;;;5027266;28;20042;-68
2022/07/20 03:25:44;;;;;;;2.03;1.50;;;26.10;44.10;24.90;100999.00;;;;5024670;28;20364;-68
2022/07/20 03:28:30;;;;;;;1.52;1.10;;;26.10;44.10;24.90;100997.00;;;;5025885;28;20037;-68
2022/07/20 03:31:16;;;;;;;2.10;1.40;;;26.10;44.10;24.90;100992.00;;;;5005612;28;20095;-68
2022/07/20 03:34:02;;;;;;;3.67;1.30;;;26.00;44.00;24.90;100990.00;;;;5026895;28;20095;-68
2022/07/20 03:36:48;;;;;;;2.10;1.20;;;26.00;44.00;24.90;100993.00;;;;5020052;28;20468;-67
2022/07/20 03:39:35;;;;;;;3.50;1.50;;;26.10;44.10;24.90;100999.00;;;;5025603;28;20041;-67
2022/07/20 03:42:21;;;;;;;1.48;1.38;;;26.00;44.00;24.90;100996.00;;;;5025455;28;20048;-67
2022/07/20 03:45:07;;;;;;;1.77;1.45;;;26.00;44.00;24.90;101005.00;;;;5026193;28;20194;-68
2022/07/20 03:47:53;;;;;;;1.52;1.40;;;26.00;44.00;24.90;100997.00;;;;5025380;28;20029;-68
2022/07/20 03:50:40;;;;;;;2.65;1.48;;;26.00;44.00;24.90;101002.00;;;;5022588;28;20041;-68
2022/07/20 03:53:26;;;;;;;1.65;1.42;;;26.10;44.10;24.90;101007.00;;;;5027013;28;20073;-68
2022/07/20 03:56:12;;;;;;;2.60;1.88;;;25.90;43.90;24.90;101001.00;;;;5026337;28;20442;-68
2022/07/20 03:58:58;;;;;;;1.45;1.23;;;26.00;44.00;24.90;100995.00;;;;5022379;28;20049;-68
2022/07/20 04:01:44;;;;;;;1.52;1.30;;;26.10;44.00;24.90;101003.00;;;;5022666;28;20168;-68
2022/07/20 04:04:31;;;;;;;1.73;1.50;;;26.10;44.10;24.90;100999.00;;;;5025186;28;20057;-68
2022/07/20 04:07:17;;;;;;;1.38;1.13;;;26.10;44.10;24.90;100997.00;;;;5021494;28;20045;-68
2022/07/20 04:10:03;;;;;;;2.20;1.60;;;26.00;44.00;24.90;100995.00;;;;5020266;28;20474;-68
2022/07/20 04:12:50;;;;;;;3.88;1.55;;;26.00;44.00;24.90;100995.00;;;;5026572;28;20107;-68
2022/07/20 04:15:36;;;;;;;1.98;1.40;;;26.00;44.00;24.90;101002.00;;;;5021768;28;20072;-68
2022/07/20 04:18:22;;;;;;;1.50;1.38;;;26.00;44.00;24.90;100999.00;;;;5021651;28;20061;-68
2022/07/20 04:21:08;;;;;;;1.63;1.40;;;26.00;44.10;24.90;101004.00;;;;5026576;28;20048;-68
2022/07/20 04:23:54;;;;;;;2.60;1.40;;;26.10;44.10;24.90;101007.00;;;;5017527;28;20399;-68
2022/07/20 04:26:40;;;;;;;1.52;1.42;;;26.00;44.00;24.90;101000.00;;;;5022603;28;20041;-67
2022/07/20 04:29:26;;;;;;;1.63;1.40;;;26.00;44.00;24.90;101006.00;;;;5018527;28;20054;-67
2022/07/20 04:32:12;;;;;;;1.95;1.30;;;26.10;44.10;24.90;101003.00;;;;5024071;28;20077;-68
2022/07/20 04:34:58;;;;;;;2.08;1.17;;;26.10;44.10;24.80;100999.00;;;;5025611;28;20045;-68
2022/07/20 04:37:44;;;;;;;2.80;1.38;;;26.10;44.10;24.90;101007.00;;;;5027075;28;20041;-68
2022/07/20 04:40:30;;;;;;;1.67;1.58;;;26.10;44.20;24.90;101002.00;;;;5019589;28;20506;-68
2022/07/20 04:43:16;;;;;;;4.00;1.48;;;26.00;44.00;24.90;101013.00;;;;5026485;28;20044;-68
2022/07/20 04:46:02;;;;;;;2.38;1.42;;;26.00;44.00;24.90;101013.00;;;;5020273;28;20406;-67
2022/07/20 04:48:48;;;;;;;1.58;1.33;;;26.10;44.10;24.90;101013.00;;;;5024716;28;20239;-68
2022/07/20 04:51:35;;;;;;;1.65;1.27;;;26.10;44.20;24.90;101005.00;;;;5020260;28;20475;-68
2022/07/20 04:54:22;;;;;;;1.52;1.40;;;26.10;44.20;24.90;101014.00;;;;5014185;28;20064;-68
2022/07/20 04:57:09;;;;;;;1.40;1.30;;;26.00;44.10;24.90;101007.00;;;;5024064;28;20041;-68
2022/07/20 04:59:55;;;;;;;1.35;1.15;;;26.10;44.10;24.90;101010.00;;;;5022337;28;20050;-68
2022/07/20 05:02:41;;;;;;;2.00;1.60;;;26.00;44.00;24.90;101017.00;;;;5022013;28;20042;-68
2022/07/20 05:05:27;;;;;;;1.42;1.33;;;26.00;44.00;24.90;101020.00;;;;5019967;28;20045;-68
2022/07/20 05:08:13;;;;;;;1.50;1.40;;;26.00;44.00;24.90;101020.00;;;;5021223;28;20042;-68
2022/07/20 05:10:59;;;;;;;1.60;1.50;;;26.10;44.10;24.90;101025.00;;;;5022039;28;20072;-68
2022/07/20 05:13:45;;;;;;;2.85;1.50;;;26.00;44.10;24.90;101023.00;;;;5020424;28;20038;-68
2022/07/20 05:16:31;;;;;;;1.65;1.40;;;26.00;44.10;24.90;101027.00;;;;5022538;28;20049;-68
2022/07/20 05:19:17;;;;;;;2.22;1.60;;;26.10;44.10;24.80;101030.00;;;;5023580;28;20103;-68
2022/07/20 05:22:03;;;;;;;2.80;1.45;;;25.90;44.00;24.80;101014.00;;;;5021941;28;20030;-68
2022/07/20 05:24:49;;;;;;;2.03;1.50;;;26.10;44.20;24.80;101034.00;;;;5023099;28;20068;-68
2022/07/20 05:27:35;;;;;;;2.38;1.63;;;26.00;44.10;24.80;101041.00;;;;5020728;28;20040;-67
2022/07/20 05:30:21;;;;;;;1.30;1.20;;;26.00;44.10;24.80;101034.00;;;;5025943;28;20052;-68
2022/07/20 05:33:07;;;;;;;1.92;1.20;;;26.10;44.20;24.80;101035.00;;;;5019431;28;20497;-68
2022/07/20 05:35:53;;;;;;;1.38;1.27;;;26.00;44.10;24.90;101039.00;;;;5020197;28;20049;-68
2022/07/20 05:38:39;;;;;;;3.05;1.42;;;26.10;44.20;24.80;101044.00;;;;5023113;28;20442;-68
2022/07/20 05:41:25;;;;;;;1.90;1.65;;;26.00;44.10;24.80;101044.00;;;;5021606;28;20049;-68
2022/07/20 05:44:12;;;;;;;1.42;1.33;;;26.00;44.10;24.80;101056.00;;;;5027413;28;20037;-68
2022/07/20 05:46:58;;;;;;;2.03;1.33;;;26.00;44.10;24.80;101055.00;;;;5023188;28;20049;-68
2022/07/20 05:49:47;;;;;;;1.90;1.30;;;26.00;44.10;24.80;101053.00;;;;5025232;28;21002;-67
2022/07/20 05:52:33;;;;;;;2.45;1.50;;;26.00;44.10;24.80;101055.00;;;;5025840;28;20120;-67
2022/07/20 05:55:19;;;;;;;2.47;1.85;;;26.00;44.10;24.80;101059.00;;;;5032252;28;20050;-68
2022/07/20 05:58:05;;;;;;;4.38;2.70;;;26.00;44.10;24.80;101058.00;;;;5025623;28;20049;-68
2022/07/20 06:00:52;;;;;;;2.88;1.50;;;26.00;44.10;24.90;101059.00;;;;5026500;28;20091;-67
2022/07/20 06:03:38;;;;;;;1.60;1.50;;;26.00;44.10;24.80;101052.00;;;;5029967;28;20045;-68
2022/07/20 06:06:24;;;;;;;4.22;1.98;;;26.10;44.10;24.80;101053.00;;;;5026589;28;20041;-68
2022/07/20 06:09:10;;;;;;;2.47;1.83;;;26.10;44.20;24.80;101057.00;;;;5027587;28;20045;-68
2022/07/20 06:11:56;;;;;;;3.13;1.77;;;26.10;44.20;24.90;101061.00;;;;5021714;28;20060;-68
2022/07/20 06:14:42;;;;;;;4.38;2.20;;;26.00;44.10;24.90;101067.00;;;;5026828;28;20479;-68
2022/07/20 06:17:36;;;;;;;5.15;3.38;;;26.00;44.20;24.80;101078.00;;;;5030629;28;20118;-68
2022/07/20 06:20:22;;;;;;;5.82;2.70;;;26.00;44.10;24.90;101067.00;;;;5023286;28;20045;-68
2022/07/20 06:23:08;;;;;;;7.57;3.55;;;26.00;44.20;24.80;101074.00;;;;5030361;28;20044;-68
2022/07/20 06:25:54;;;;;;;9.02;3.63;;;26.00;44.20;24.80;101077.00;;;;5024246;28;20045;-67
2022/07/20 06:28:40;;;;;;;5.63;2.90;;;26.00;44.20;24.90;101075.00;;;;5025003;28;20056;-67
2022/07/20 06:31:26;;;;;;;5.72;3.22;;;26.00;44.20;24.80;101081.00;;;;5029038;28;20033;-67
2022/07/20 06:34:13;;;;;;;5.45;2.50;;;26.00;44.10;24.80;101089.00;;;;5022457;28;20050;-67
2022/07/20 06:36:59;;;;;;;5.18;3.00;;;26.10;44.20;24.80;101092.00;;;;5024184;28;20128;-67
2022/07/20 06:39:45;;;;;;;5.72;2.70;;;26.00;44.10;24.80;101079.00;;;;5022956;28;20044;-67
2022/07/20 06:42:31;;;;;;;5.65;2.92;;;26.00;44.10;24.80;101092.00;;;;5026774;28;20537;-67
2022/07/20 06:45:17;;;;;;;6.90;3.28;;;25.90;44.00;24.80;101076.00;;;;5029873;28;20045;-67
2022/07/20 06:48:04;;;;;;;5.50;2.70;;;26.10;44.20;24.80;101080.00;;;;5024511;28;20033;-67
2022/07/20 06:50:50;;;;;;;9.98;3.72;;;26.00;44.10;24.80;101077.00;;;;5028128;28;20085;-67
2022/07/20 06:53:36;;;;;;;5.68;3.00;;;26.10;44.20;24.90;101077.00;;;;5029666;28;20133;-67
2022/07/20 06:56:22;;;;;;;7.20;3.55;;;26.00;44.10;24.80;101080.00;;;;5015479;28;20051;-67
2022/07/20 06:59:08;;;;;;;6.82;3.05;;;26.00;44.10;24.80;101076.00;;;;5030090;28;20045;-67
2022/07/20 07:01:54;;;;;;;6.25;3.38;;;26.00;44.10;24.80;101075.00;;;;5023798;28;20515;-67
2022/07/20 07:04:40;;;;;;;5.15;3.22;;;26.00;44.10;24.80;101086.00;;;;5024349;28;20033;-67
2022/07/20 07:07:26;;;;;;;6.65;3.05;;;26.00;44.10;24.90;101087.00;;;;5028721;28;20037;-67
2022/07/20 07:10:12;;;;;;;9.88;3.47;;;26.10;44.10;24.80;101089.00;;;;5025900;28;20499;-67
2022/07/20 07:12:59;;;;;;;5.78;3.45;;;26.10;44.10;24.80;101091.00;;;;5020024;28;20103;-67
2022/07/20 07:15:45;;;;;;;6.93;3.28;;;26.10;44.10;24.80;101091.00;;;;5025144;28;20491;-67
2022/07/20 07:18:31;;;;;;;5.28;3.60;;;26.00;44.00;24.80;101090.00;;;;5025091;28;20049;-67
2022/07/20 07:21:17;;;;;;;5.78;3.03;;;26.00;43.90;24.90;101087.00;;;;5020521;28;20049;-69
2022/07/20 07:24:04;;;;;;;5.18;3.10;;;26.00;44.00;24.80;101086.00;;;;5023856;28;20056;-69
2022/07/20 07:26:50;;;;;;;4.07;2.70;;;26.00;44.00;24.90;101091.00;;;;5021206;28;20042;-69
2022/07/20 07:29:36;;;;;;;4.20;2.83;;;26.00;43.80;24.90;101092.00;;;;5026646;28;20037;-69
2022/07/20 07:32:22;;;;;;;5.63;2.75;;;26.00;43.70;24.90;101085.00;;;;5020687;28;20770;-69
2022/07/20 07:35:08;;;;;;;6.38;2.83;;;26.10;43.70;24.90;101091.00;;;;5023810;28;20033;-69
2022/07/20 07:37:54;;;;;;;7.55;2.70;;;26.00;43.70;24.90;101091.00;;;;5024870;28;20099;-69
2022/07/20 07:40:40;;;;;;;7.97;3.40;;;26.00;43.60;24.80;101081.00;;;;5022866;28;20275;-66
2022/07/20 07:43:26;;;;;;;3.75;2.67;;;26.00;43.60;24.90;101094.00;;;;5026824;28;20110;-67
2022/07/20 07:46:12;;;;;;;4.13;3.25;;;26.00;43.60;24.80;101092.00;;;;5024418;28;20037;-67
2022/07/20 07:48:58;;;;;;;5.47;3.03;;;26.00;43.60;24.80;101096.00;;;;5026687;28;20115;-67
2022/07/20 07:51:44;;;;;;;5.55;3.10;;;26.00;43.40;24.80;101105.00;;;;5019827;28;20480;-67
2022/07/20 07:54:30;;;;;;;7.45;3.60;;;26.00;43.40;24.80;101103.00;;;;5023650;28;20049;-67
2022/07/20 07:57:16;;;;;;;4.53;3.40;;;26.00;43.10;24.90;101112.00;;;;5023427;28;20495;-67
2022/07/20 08:00:04;;;;;;;7.03;3.08;;;26.00;43.10;24.90;101112.00;;;;5027712;28;20052;-68
2022/07/20 08:02:50;;;;;;;;;;;26.00;43.10;24.80;101124.00;;;;5023543;28;20467;-68
2022/07/20 08:05:36;;;;;;;4.85;2.78;;;26.00;43.30;24.80;101128.00;;;;5020060;28;19917;-68
2022/07/20 08:08:22;;;;;;;5.05;2.72;;;26.00;43.00;24.80;101129.00;;;;5047004;28;20037;-68
2022/07/20 08:11:08;;;;;;;7.07;3.20;;;26.00;43.10;24.90;101131.00;;;;5019594;28;20433;-67
2022/07/20 08:13:54;;;;;;;4.53;2.85;;;25.90;42.90;24.80;101127.00;;;;5022381;28;20044;-68
2022/07/20 08:16:40;;;;;;;5.28;3.33;;;26.10;43.10;24.90;101137.00;;;;5021709;28;20486;-68
2022/07/20 08:19:27;;;;;;;6.78;2.63;;;26.00;43.00;24.90;101147.00;;;;5015071;28;20325;-68
2022/07/20 08:22:13;;;;;;;4.80;2.97;;;26.00;43.10;24.90;101157.00;;;;5017023;28;20416;-68
2022/07/20 08:24:59;;;;;;;4.95;3.05;;;26.00;43.10;24.90;101156.00;;;;5015309;28;20038;-68
2022/07/20 08:27:45;;;;;;;4.15;2.67;;;26.00;43.10;24.90;101159.00;;;;5033646;28;20399;-68
2022/07/20 08:30:31;;;;;;;6.97;3.03;;;26.00;43.00;24.90;101164.00;;;;5024968;28;20373;-68
2022/07/20 08:33:17;;;;;;;6.60;2.85;;;26.10;43.00;24.90;101170.00;;;;5021271;28;20049;-67
2022/07/20 08:36:04;;;;;;;4.30;2.90;;;26.00;42.90;24.90;101160.00;;;;5023929;28;20053;-68
2022/07/20 08:38:50;;;;;;;5.03;2.85;;;26.10;42.90;24.90;101163.00;;;;5019934;28;20392;-68
2022/07/20 08:41:36;;;;;;;5.35;3.30;;;26.10;42.90;24.90;101170.00;;;;5021523;28;20044;-68
2022/07/20 08:44:23;;;;;;;7.30;4.22;;;26.00;42.80;24.90;101164.00;;;;5021429;28;20291;-68
2022/07/20 08:47:13;;;;;;;5.75;3.20;;;26.10;42.90;24.90;101177.00;;;;5019984;28;20454;-68
2022/07/20 08:49:59;;;;;;;7.07;3.30;;;26.10;42.90;24.90;101179.00;;;;5026862;28;20049;-68
2022/07/20 08:52:46;;;;;;;5.78;3.50;;;26.10;43.00;24.90;101176.00;;;;5020075;28;20063;-68
2022/07/20 08:55:32;;;;;;;6.72;3.70;;;26.10;43.00;25.00;101189.00;;;;5037624;28;20484;-68
2022/07/20 08:58:18;;;;;;;5.70;4.13;;;26.20;43.20;25.00;101193.00;;;;5007853;28;20033;-68
2022/07/20 09:01:05;;;;;;;6.70;4.43;;;26.10;43.20;25.00;101194.00;;;;5024392;28;20042;-68
2022/07/20 09:04:09;;;;;;;7.88;4.35;;;26.20;43.40;25.00;101207.00;;;;5028130;28;20497;-68
2022/07/20 09:06:55;;;;;;;5.70;4.75;;;26.20;43.70;25.00;101211.00;;;;5021753;28;20038;-68
2022/07/20 09:09:42;;;;;;;10.30;5.80;;;26.20;43.80;25.00;101213.00;;;;5024406;28;20045;-67
2022/07/20 09:12:28;;;;;;;8.68;5.40;;;26.20;44.00;25.00;101213.00;;;;5025880;28;20194;-67
2022/07/20 09:15:29;;;;;;;6.85;4.93;;;26.20;45.00;25.00;101227.00;;;;5022744;28;20064;-67
2022/07/20 09:18:24;;;;;;;8.98;6.47;;;26.20;44.50;25.00;101235.00;;;;5021468;28;20095;-68
2022/07/20 09:21:10;;;;;;;12.10;7.47;;;26.30;44.90;25.00;101254.00;;;;5021215;28;20099;-68
2022/07/20 09:23:56;;;;;;;12.32;8.35;;;26.30;45.30;25.00;101258.00;;;;5023837;28;20044;-67
2022/07/20 09:26:42;;;;;;;14.32;8.93;;;26.30;45.60;25.00;101260.00;;;;5037659;28;20037;-67
2022/07/20 09:29:28;;;;;;;14.25;9.13;;;26.30;45.90;25.10;101261.00;;;;5019208;28;20533;-67
2022/07/20 09:32:14;;;;;;;13.13;8.73;;;26.30;46.20;25.10;101256.00;;;;5025004;28;20037;-68
2022/07/20 09:35:01;;;;;;;12.60;9.20;;;26.30;46.20;25.10;101253.00;;;;5017920;28;20093;-67
2022/07/20 09:37:47;;;;;;;12.05;9.27;;;26.30;46.30;25.10;101255.00;;;;5021527;28;20049;-67
2022/07/20 09:40:45;;;;;;;15.63;10.10;;;26.30;45.90;25.10;101245.00;;;;5022560;28;20116;-67
2022/07/20 09:43:34;;;;;;;16.50;9.93;;;26.30;46.60;25.10;101239.00;;;;5020828;28;20065;-67
2022/07/20 09:46:25;;;;;;;16.40;9.98;;;26.40;46.50;25.10;101240.00;;;;5020326;28;21614;-67
2022/07/20 09:49:12;;;;;;;17.13;11.18;;;26.30;46.50;25.10;101226.00;;;;5020021;28;20097;-67
2022/07/20 09:51:59;;;;;;;15.35;11.20;;;26.40;46.80;25.10;101243.00;;;;5023196;28;20049;-68
2022/07/20 09:54:45;;;;;;;16.73;10.38;;;26.40;46.80;25.10;101241.00;;;;5020093;28;20128;-68
2022/07/20 09:57:31;;;;;;;14.90;10.52;;;26.40;46.50;25.10;101246.00;;;;5018750;28;20476;-68
2022/07/20 10:00:28;;;;;;;14.70;10.35;;;26.40;46.60;25.10;101233.00;;;;5022148;28;20097;-67
2022/07/20 10:03:15;;;;;;;12.10;9.40;;;26.40;46.70;25.10;101237.00;;;;5023620;28;20045;-67
2022/07/20 10:06:01;;;;;;;15.63;10.70;;;26.40;46.70;25.10;101244.00;;;;5023363;28;20041;-68
2022/07/20 10:08:47;;;;;;;15.45;10.88;;;26.40;46.80;25.10;101246.00;;;;4995278;28;20197;-68
2022/07/20 10:11:33;;;;;;;41.60;11.10;;;26.40;46.60;25.10;101247.00;;;;5019197;28;20476;-67
2022/07/20 10:14:20;;;;;;;16.40;10.30;;;26.50;46.60;25.10;101239.00;;;;5026027;28;20342;-68
2022/07/20 10:17:06;;;;;;;15.75;10.70;;;26.40;46.50;25.10;101236.00;;;;5011437;28;20038;-68
2022/07/20 10:19:52;;;;;;;11.95;9.98;;;26.40;46.40;25.10;101222.00;;;;5022118;28;20053;-68
2022/07/20 10:22:38;;;;;;;16.02;10.48;;;26.40;46.10;25.20;101239.00;;;;5021163;28;20034;-68
2022/07/20 10:25:27;;;;;;;17.27;11.38;;;26.40;46.30;25.20;101242.00;;;;5024661;28;20522;-67
2022/07/20 10:28:36;;;;;;;16.52;11.65;;;26.40;46.50;25.10;101231.00;;;;5009297;28;20036;-67
2022/07/20 10:31:22;;;;;;;15.60;10.80;;;26.40;46.50;25.20;101224.00;;;;5022982;28;20072;-67
2022/07/20 10:34:29;;;;;;;15.98;11.23;;;26.40;46.40;25.20;101225.00;;;;5027857;28;20107;-67
2022/07/20 10:37:34;;;;;;;16.17;10.48;;;26.40;46.50;25.10;101223.00;;;;5034629;28;20115;-67
2022/07/20 10:40:28;;;;;;;14.77;9.82;;;26.40;46.60;25.10;101229.00;;;;5022183;28;20053;-68
2022/07/20 10:43:15;;;;;;;16.23;11.05;;;26.40;46.50;25.20;101225.00;;;;5021881;28;20380;-68
2022/07/20 10:46:01;;;;;;;13.00;10.68;;;26.50;46.40;25.20;101225.00;;;;5021915;28;20419;-67
2022/07/20 10:48:47;;;;;;;13.82;10.23;;;26.40;46.40;25.20;101225.00;;;;5014255;28;20128;-67
2022/07/20 10:51:33;;;;;;;14.50;9.95;;;26.40;46.20;25.20;101235.00;;;;5019108;28;20046;-67
2022/07/20 10:54:31;;;;;;;13.25;9.60;;;26.40;46.10;25.20;101236.00;;;;5043272;28;20045;-68
2022/07/20 10:57:17;;;;;;;15.48;10.88;;;26.40;46.10;25.20;101236.00;;;;5028048;28;20045;-68
2022/07/20 11:00:12;;;;;;;13.50;9.73;;;26.50;46.00;25.20;101223.00;;;;4998679;28;20045;-68
2022/07/20 11:02:58;;;;;;;14.00;9.45;;;26.50;46.00;25.20;101221.00;;;;5041520;28;20037;-67
2022/07/20 11:05:46;;;;;;;14.32;10.48;;;26.50;46.00;25.20;101229.00;;;;5024774;28;20038;-68
2022/07/20 11:08:32;;;;;;;12.35;9.77;;;26.50;46.30;25.20;101238.00;;;;5036682;28;20034;-68
2022/07/20 11:11:23;;;;;;;14.05;10.23;;;26.50;45.90;25.20;101241.00;;;;5029731;28;20037;-68
2022/07/20 11:14:11;;;;;;;11.85;9.80;;;26.50;46.20;25.20;101235.00;;;;5010524;28;20049;-67
2022/07/20 11:16:57;;;;;;;15.27;10.73;;;26.50;46.00;25.20;101252.00;;;;5023020;28;20045;-68
2022/07/20 11:19:43;;;;;;;16.45;10.50;;;26.50;46.20;25.20;101239.00;;;;5024779;28;20117;-68
2022/07/20 11:22:29;;;;;;;17.08;10.57;;;26.50;46.10;25.20;101238.00;;;;5036137;28;20124;-68
2022/07/20 11:25:15;;;;;;;16.63;10.70;;;26.50;46.30;25.20;101253.00;;;;5029625;28;20399;-67
2022/07/20 11:28:02;;;;;;;16.23;11.38;;;26.50;46.40;25.20;101255.00;;;;5023083;28;20041;-68
2022/07/20 11:30:49;;;;;;;15.48;10.75;;;26.50;46.50;25.20;101256.00;;;;5029585;28;20056;-68
2022/07/20 11:33:38;;;;;;;16.33;10.40;;;26.50;47.00;25.20;101262.00;;;;5028216;28;20105;-68
2022/07/20 11:36:29;;;;;;;14.65;11.50;;;26.60;46.30;25.20;101267.00;;;;5013531;28;20280;-68
2022/07/20 11:39:16;;;;;;;17.10;11.30;;;26.50;46.30;25.30;101270.00;;;;5020252;28;20046;-68
2022/07/20 11:42:10;;;;;;;16.27;11.20;;;26.60;46.40;25.20;101260.00;;;;5023442;28;20172;-68
2022/07/20 11:45:02;;;;;;;16.77;10.90;;;26.50;46.30;25.30;101265.00;;;;5000617;28;20087;-68
2022/07/20 11:47:48;;;;;;;12.18;10.85;;;26.50;46.20;25.30;101269.00;;;;5025615;28;20469;-68
2022/07/20 11:50:34;;;;;;;13.38;10.10;;;26.60;46.10;25.30;101261.00;;;;5022101;28;20046;-67
2022/07/20 11:53:31;;;;;;;13.23;10.32;;;26.60;46.10;25.30;101260.00;;;;5024438;28;20491;-68
2022/07/20 11:56:22;;;;;;;14.38;10.88;;;26.60;46.10;25.30;101261.00;;;;5028091;28;20085;-68
2022/07/20 11:59:08;;;;;;;14.07;9.90;;;26.60;46.00;25.30;101260.00;;;;5028862;28;20049;-67
2022/07/20 12:01:56;;;;;;;17.00;10.48;;;26.60;46.10;25.30;101251.00;;;;5020077;28;20036;-68
2022/07/20 12:04:42;;;;;;;15.93;11.07;;;26.60;46.10;25.30;101254.00;;;;5036886;28;20037;-68
2022/07/20 12:10:44;;;;;;;13.70;10.15;;;26.60;46.00;25.30;101246.00;;;;5021453;28;20047;-68
2022/07/20 12:13:30;;;;;;;14.52;9.77;;;26.60;45.90;25.30;101256.00;;;;5041313;28;20038;-68
2022/07/20 12:16:17;;;;;;;12.75;10.45;;;26.60;45.90;25.30;101248.00;;;;5025271;28;20041;-68